Time;durP1;ratioP1;P1;durP2;ratioP2;P2;SDS_P1;SDS_P2;PMS_P1;PMS_P2;Temp;Humidity;BMP_temperature;BMP_pressure;BME280_temperature;BME280_humidity;BME280_pressure;Samples;Min_cycle;Max_cycle;Signal;HPM_P1;HPM_P2
2022/02/18 00:00:41;;;;;;;12.15;3.42;;;9.80;58.20;;;;;;5013474;28;20291;-67
2022/02/18 00:03:08;;;;;;;20.05;3.90;;;9.70;58.50;;;;;;5013287;28;20261;-68
2022/02/18 00:05:35;;;;;;;11.27;2.50;;;9.70;58.60;;;;;;5023815;28;20227;-67
2022/02/18 00:08:02;;;;;;;12.43;2.70;;;9.70;58.50;;;;;;5032136;28;20222;-67
2022/02/18 00:10:29;;;;;;;8.27;2.75;;;9.80;58.70;;;;;;5033016;28;20211;-67
2022/02/18 00:12:58;;;;;;;11.38;2.35;;;9.70;58.80;;;;;;5032367;28;20219;-67
2022/02/18 00:15:25;;;;;;;14.35;2.70;;;9.70;58.80;;;;;;5023531;28;20573;-68
2022/02/18 00:17:52;;;;;;;8.23;2.20;;;9.80;59.00;;;;;;5012470;28;20238;-69
2022/02/18 00:20:19;;;;;;;8.80;2.78;;;9.80;59.00;;;;;;5012930;28;20245;-68
2022/02/18 00:22:46;;;;;;;8.20;2.22;;;9.80;59.00;;;;;;5012787;28;20191;-68
2022/02/18 00:25:15;;;;;;;10.75;2.65;;;9.90;59.20;;;;;;5012993;28;20551;-68
2022/02/18 00:27:42;;;;;;;11.07;2.58;;;9.90;59.00;;;;;;5012586;28;20207;-68
2022/02/18 00:30:12;;;;;;;8.18;2.75;;;9.90;59.00;;;;;;5014169;28;20250;-68
2022/02/18 00:32:40;;;;;;;14.70;3.55;;;9.90;59.40;;;;;;5012870;28;20196;-68
2022/02/18 00:35:07;;;;;;;9.07;3.05;;;9.80;59.40;;;;;;5020767;28;20191;-69
2022/02/18 00:37:35;;;;;;;12.40;3.08;;;9.90;59.40;;;;;;5032737;28;20191;-67
2022/02/18 00:40:03;;;;;;;10.77;2.85;;;9.80;59.50;;;;;;5032356;28;20248;-67
2022/02/18 00:42:30;;;;;;;10.57;3.75;;;9.80;59.60;;;;;;5032593;28;20526;-68
2022/02/18 00:44:57;;;;;;;8.43;2.90;;;9.80;60.00;;;;;;5028772;28;20630;-68
2022/02/18 00:47:25;;;;;;;7.78;2.88;;;9.80;60.40;;;;;;5022890;28;20290;-68
2022/02/18 00:49:52;;;;;;;10.35;3.00;;;9.80;60.50;;;;;;5032279;28;20537;-67
2022/02/18 00:52:19;;;;;;;12.88;3.08;;;9.90;60.90;;;;;;5031776;28;20232;-67
2022/02/18 00:54:46;;;;;;;6.65;2.25;;;9.80;61.80;;;;;;5032437;28;20194;-67
2022/02/18 00:57:13;;;;;;;10.18;2.55;;;9.80;61.80;;;;;;5028809;28;20192;-67
2022/02/18 00:59:40;;;;;;;12.52;3.40;;;9.80;61.70;;;;;;5012652;28;20200;-68
2022/02/18 01:02:07;;;;;;;12.75;3.78;;;9.80;61.70;;;;;;5016880;28;20184;-67
2022/02/18 01:04:38;;;;;;;9.82;2.60;;;9.80;62.10;;;;;;5032490;28;20618;-68
2022/02/18 01:07:06;;;;;;;9.18;2.40;;;9.80;62.00;;;;;;5027992;28;20574;-68
2022/02/18 01:09:33;;;;;;;13.07;3.53;;;9.80;62.40;;;;;;5012555;28;20274;-68
2022/02/18 01:12:00;;;;;;;7.07;3.15;;;9.80;62.50;;;;;;5016108;28;20281;-68
2022/02/18 01:14:27;;;;;;;12.60;3.05;;;9.80;62.30;;;;;;5032180;28;20616;-68
2022/02/18 01:16:54;;;;;;;9.68;2.25;;;9.80;62.10;;;;;;5032269;28;20191;-68
2022/02/18 01:19:22;;;;;;;12.02;2.95;;;9.80;62.40;;;;;;5033832;28;20290;-69
2022/02/18 01:21:50;;;;;;;12.90;2.72;;;9.80;62.00;;;;;;5033427;28;20713;-68
2022/02/18 01:24:17;;;;;;;5.53;2.70;;;9.80;61.90;;;;;;5015932;28;20266;-68
2022/02/18 01:26:44;;;;;;;9.98;2.38;;;9.80;61.10;;;;;;5016494;28;20250;-68
2022/02/18 01:29:11;;;;;;;6.90;2.40;;;9.70;60.70;;;;;;5035636;28;20219;-67
2022/02/18 01:31:38;;;;;;;7.47;2.83;;;9.70;60.50;;;;;;5035143;28;20213;-69
2022/02/18 01:34:05;;;;;;;10.48;3.40;;;9.70;60.40;;;;;;5016009;28;20196;-68
2022/02/18 01:36:32;;;;;;;8.80;2.75;;;9.60;60.50;;;;;;5016079;28;20234;-68
2022/02/18 01:39:01;;;;;;;11.88;2.85;;;9.60;60.70;;;;;;5034780;28;20187;-68
2022/02/18 01:41:28;;;;;;;12.00;3.00;;;9.50;60.70;;;;;;5035373;28;20237;-68
2022/02/18 01:43:56;;;;;;;11.73;2.45;;;9.50;61.00;;;;;;5035581;28;20245;-68
2022/02/18 01:46:24;;;;;;;14.73;2.88;;;9.50;61.30;;;;;;5035521;28;20199;-67
2022/02/18 01:48:52;;;;;;;11.80;2.53;;;9.50;61.30;;;;;;5017325;28;20216;-69
2022/02/18 01:51:20;;;;;;;6.50;2.47;;;9.50;61.10;;;;;;5015446;28;20192;-68
2022/02/18 01:53:49;;;;;;;10.65;4.45;;;9.50;61.10;;;;;;5032538;28;20585;-68
2022/02/18 01:56:18;;;;;;;9.70;2.75;;;9.60;61.10;;;;;;5035064;28;20688;-68
2022/02/18 01:58:45;;;;;;;7.35;2.30;;;9.60;61.10;;;;;;5018213;28;20219;-68
2022/02/18 02:01:14;;;;;;;13.32;2.95;;;9.60;60.90;;;;;;5015832;28;20200;-68
2022/02/18 02:03:42;;;;;;;9.63;2.70;;;9.60;60.90;;;;;;5031292;28;20230;-67
2022/02/18 02:06:10;;;;;;;11.32;2.83;;;9.60;60.70;;;;;;5035046;28;20203;-67
2022/02/18 02:08:38;;;;;;;14.65;3.22;;;9.70;60.80;;;;;;5019220;28;20227;-67
2022/02/18 02:11:05;;;;;;;11.90;3.35;;;9.70;60.80;;;;;;5015175;28;20188;-68
2022/02/18 02:13:36;;;;;;;6.88;2.45;;;9.70;60.70;;;;;;5029669;28;20249;-67
2022/02/18 02:16:04;;;;;;;10.02;2.40;;;9.80;60.70;;;;;;5035032;28;20206;-68
2022/02/18 02:18:31;;;;;;;10.40;2.65;;;9.80;61.20;;;;;;5034640;28;20693;-68
2022/02/18 02:20:58;;;;;;;14.73;3.47;;;9.80;60.30;;;;;;5034870;28;20195;-68
2022/02/18 02:23:26;;;;;;;8.45;2.92;;;9.80;60.10;;;;;;5019141;28;20329;-68
2022/02/18 02:25:53;;;;;;;12.75;2.10;;;9.90;60.20;;;;;;5014789;28;20639;-68
2022/02/18 02:28:21;;;;;;;6.20;2.25;;;9.90;60.00;;;;;;5028740;28;20687;-68
2022/02/18 02:30:48;;;;;;;15.55;2.65;;;9.90;59.90;;;;;;5034027;28;20269;-68
2022/02/18 02:33:15;;;;;;;7.13;2.58;;;9.90;59.70;;;;;;5020054;28;20192;-68
2022/02/18 02:35:42;;;;;;;8.15;2.25;;;9.90;59.70;;;;;;5014636;28;20200;-70
2022/02/18 02:38:10;;;;;;;7.97;2.75;;;9.90;59.50;;;;;;5014559;28;20199;-67
2022/02/18 02:40:39;;;;;;;13.23;2.55;;;9.90;59.50;;;;;;5014015;28;20239;-67
2022/02/18 02:43:06;;;;;;;8.90;2.10;;;9.90;59.40;;;;;;5022140;28;20227;-70
2022/02/18 02:45:33;;;;;;;7.75;1.85;;;9.80;59.30;;;;;;5034164;28;20191;-67
2022/02/18 02:48:00;;;;;;;5.95;2.55;;;9.80;59.20;;;;;;5034068;28;20227;-68
2022/02/18 02:50:27;;;;;;;9.68;2.33;;;9.80;59.20;;;;;;5034339;28;20195;-67
2022/02/18 02:52:54;;;;;;;7.00;2.58;;;9.80;59.30;;;;;;5023662;28;20195;-68
2022/02/18 02:55:21;;;;;;;7.55;2.10;;;9.80;59.30;;;;;;5014469;28;20200;-67
2022/02/18 02:57:49;;;;;;;10.75;1.90;;;9.80;59.30;;;;;;5022986;28;20251;-67
2022/02/18 03:00:18;;;;;;;10.70;2.40;;;9.80;59.50;;;;;;5033880;28;20191;-67
2022/02/18 03:02:45;;;;;;;10.00;2.42;;;9.80;59.50;;;;;;5024741;28;20180;-67
2022/02/18 03:05:14;;;;;;;14.43;2.92;;;9.80;59.40;;;;;;5014264;28;20254;-68
2022/02/18 03:07:41;;;;;;;10.25;2.58;;;9.90;59.40;;;;;;5021588;28;20257;-68
2022/02/18 03:10:10;;;;;;;12.57;2.53;;;9.90;59.40;;;;;;5033768;28;20570;-68
2022/02/18 03:12:37;;;;;;;10.63;2.80;;;10.00;58.70;;;;;;5025841;28;20601;-68
2022/02/18 03:15:06;;;;;;;9.85;2.20;;;10.00;58.60;;;;;;5014481;28;20614;-69
2022/02/18 03:17:34;;;;;;;8.68;2.40;;;10.00;58.60;;;;;;5020026;28;20245;-67
2022/02/18 03:20:01;;;;;;;14.50;2.40;;;10.00;58.40;;;;;;5033615;28;20195;-68
2022/02/18 03:22:28;;;;;;;7.03;2.13;;;10.00;58.40;;;;;;5033543;28;20353;-68
2022/02/18 03:24:55;;;;;;;9.32;2.40;;;10.00;58.30;;;;;;5033360;28;20248;-68
2022/02/18 03:27:22;;;;;;;6.18;3.22;;;10.00;58.40;;;;;;5033338;28;20230;-68
2022/02/18 03:29:50;;;;;;;10.18;2.97;;;10.00;58.40;;;;;;5033296;28;20223;-68
2022/02/18 03:32:18;;;;;;;9.13;2.17;;;10.00;58.50;;;;;;5033004;28;20195;-67
2022/02/18 03:34:45;;;;;;;10.43;2.13;;;10.00;58.50;;;;;;5033019;28;20195;-68
2022/02/18 03:37:12;;;;;;;7.55;2.35;;;10.00;58.50;;;;;;5030144;28;20698;-67
2022/02/18 03:39:39;;;;;;;11.48;2.53;;;10.10;58.30;;;;;;5013422;28;20227;-68
2022/02/18 03:42:06;;;;;;;7.45;2.38;;;10.10;58.20;;;;;;5012630;28;20635;-68
2022/02/18 03:44:35;;;;;;;7.63;2.40;;;10.10;58.00;;;;;;5013329;28;20246;-68
2022/02/18 03:47:02;;;;;;;6.00;1.98;;;10.20;58.00;;;;;;5013563;28;20192;-68
2022/02/18 03:49:30;;;;;;;12.00;2.60;;;10.20;57.80;;;;;;5013216;28;20578;-68
2022/02/18 03:51:57;;;;;;;13.02;2.55;;;10.20;57.70;;;;;;5014195;28;20242;-70
2022/02/18 03:54:26;;;;;;;7.60;1.80;;;10.20;57.60;;;;;;5033188;28;20217;-67
2022/02/18 03:56:53;;;;;;;7.43;2.15;;;10.20;57.30;;;;;;5032500;28;20202;-68
2022/02/18 03:59:20;;;;;;;5.25;1.95;;;10.20;57.40;;;;;;5013471;28;20274;-68
2022/02/18 04:01:47;;;;;;;10.63;2.55;;;10.20;57.30;;;;;;5013284;28;20195;-67
2022/02/18 04:04:14;;;;;;;7.07;2.00;;;10.10;57.30;;;;;;5032575;28;20240;-68
2022/02/18 04:06:42;;;;;;;12.50;3.10;;;10.10;57.20;;;;;;5016222;28;20655;-68
2022/02/18 04:09:09;;;;;;;7.40;2.40;;;10.10;57.30;;;;;;5013220;28;20224;-69
2022/02/18 04:11:36;;;;;;;6.13;2.42;;;10.10;57.20;;;;;;5012816;28;20195;-71
2022/02/18 04:14:03;;;;;;;6.40;2.15;;;10.00;57.20;;;;;;5013197;28;20222;-67
2022/02/18 04:16:30;;;;;;;5.22;1.88;;;10.10;57.30;;;;;;5014760;28;20191;-68
2022/02/18 04:18:58;;;;;;;9.48;1.77;;;10.10;57.20;;;;;;5030905;28;20195;-68
2022/02/18 04:21:24;;;;;;;7.97;1.85;;;10.20;57.10;;;;;;5032991;28;20191;-68
2022/02/18 04:23:53;;;;;;;11.50;3.28;;;10.20;57.10;;;;;;5032722;28;20253;-68
2022/02/18 04:26:20;;;;;;;7.07;1.92;;;10.20;57.00;;;;;;5030352;28;20190;-68
2022/02/18 04:28:47;;;;;;;9.93;2.90;;;10.20;56.80;;;;;;5032095;28;20222;-68
2022/02/18 04:31:14;;;;;;;7.50;2.10;;;10.20;56.70;;;;;;5027509;28;20191;-68
2022/02/18 04:33:41;;;;;;;9.02;2.50;;;10.10;56.70;;;;;;5032200;28;20241;-67
2022/02/18 04:36:08;;;;;;;11.27;1.75;;;10.10;56.80;;;;;;5024043;28;20192;-68
2022/02/18 04:38:36;;;;;;;7.88;2.85;;;10.10;56.80;;;;;;5013078;28;20213;-69
2022/02/18 04:41:04;;;;;;;5.97;2.35;;;10.00;56.70;;;;;;5013064;28;20195;-68
2022/02/18 04:43:31;;;;;;;7.43;1.60;;;10.10;56.80;;;;;;5012772;28;20200;-67
2022/02/18 04:45:58;;;;;;;7.65;2.15;;;10.10;56.70;;;;;;5012776;28;20258;-68
2022/02/18 04:48:25;;;;;;;14.00;2.85;;;10.10;56.60;;;;;;5013036;28;20192;-68
2022/02/18 04:50:52;;;;;;;7.15;2.10;;;10.10;56.60;;;;;;5014602;28;20196;-68
2022/02/18 04:53:19;;;;;;;8.85;2.60;;;10.20;56.60;;;;;;5032302;28;20764;-67
2022/02/18 04:55:46;;;;;;;8.02;2.22;;;10.20;56.60;;;;;;5036483;28;20222;-68
2022/02/18 04:58:14;;;;;;;6.18;1.98;;;10.20;56.60;;;;;;5036178;28;20214;-68
2022/02/18 05:00:41;;;;;;;5.72;1.90;;;10.20;56.50;;;;;;5036700;28;20201;-69
2022/02/18 05:03:10;;;;;;;5.30;1.67;;;10.20;56.40;;;;;;5022146;28;20242;-69
2022/02/18 05:05:37;;;;;;;10.38;2.40;;;10.20;56.30;;;;;;5018253;28;20203;-70
2022/02/18 05:08:04;;;;;;;8.02;1.95;;;10.20;56.30;;;;;;5036668;28;20191;-68
2022/02/18 05:10:31;;;;;;;7.88;2.25;;;10.20;56.30;;;;;;5036408;28;20304;-68
2022/02/18 05:13:02;;;;;;;5.22;2.28;;;10.20;56.30;;;;;;5035870;28;20620;-68
2022/02/18 05:15:32;;;;;;;12.07;1.85;;;10.20;56.20;;;;;;5036550;28;20191;-67
2022/02/18 05:18:01;;;;;;;6.25;2.05;;;10.20;56.20;;;;;;5036616;28;20645;-67
2022/02/18 05:20:29;;;;;;;5.72;1.92;;;10.20;56.10;;;;;;5036451;28;20261;-68
2022/02/18 05:22:56;;;;;;;12.27;3.47;;;10.20;56.10;;;;;;5020982;28;20610;-67
2022/02/18 05:25:23;;;;;;;7.53;2.40;;;10.20;56.10;;;;;;5015666;28;20196;-68
2022/02/18 05:27:50;;;;;;;12.15;1.98;;;10.10;56.00;;;;;;5018122;28;20188;-68
2022/02/18 05:30:17;;;;;;;4.43;1.92;;;10.10;56.10;;;;;;5033531;28;20704;-68
2022/02/18 05:32:45;;;;;;;8.52;2.40;;;10.10;56.10;;;;;;5018888;28;20183;-68
2022/02/18 05:35:13;;;;;;;9.57;2.63;;;10.10;56.00;;;;;;5024921;28;20176;-69
2022/02/18 05:37:40;;;;;;;3.47;1.63;;;10.00;56.00;;;;;;5031042;28;20191;-68
2022/02/18 05:40:08;;;;;;;7.35;2.47;;;10.00;56.00;;;;;;5034056;28;20195;-68
2022/02/18 05:42:35;;;;;;;7.85;2.80;;;10.00;56.00;;;;;;5033017;28;20669;-68
2022/02/18 05:45:02;;;;;;;9.65;4.80;;;10.00;56.10;;;;;;5032341;28;20256;-71
2022/02/18 05:47:29;;;;;;;16.75;4.93;;;9.90;56.80;;;;;;5033284;28;20248;-68
2022/02/18 05:49:57;;;;;;;16.63;8.05;;;9.90;57.00;;;;;;5031795;28;20223;-68
2022/02/18 05:52:24;;;;;;;13.55;6.40;;;9.80;57.30;;;;;;5031326;28;20245;-68
2022/02/18 05:54:51;;;;;;;13.98;5.60;;;9.60;57.70;;;;;;5032808;28;20230;-67
2022/02/18 05:57:18;;;;;;;11.77;4.78;;;9.50;58.20;;;;;;5033668;28;20600;-68
2022/02/18 05:59:45;;;;;;;20.00;6.70;;;9.40;58.50;;;;;;5032925;28;20187;-68
2022/02/18 06:02:12;;;;;;;10.25;4.15;;;9.30;58.70;;;;;;5030993;28;20223;-68
2022/02/18 06:04:39;;;;;;;12.65;6.40;;;9.30;58.80;;;;;;5031270;28;20188;-67
2022/02/18 06:07:07;;;;;;;10.38;5.50;;;9.20;58.80;;;;;;5025810;28;20195;-67
2022/02/18 06:09:34;;;;;;;14.68;4.88;;;9.20;58.80;;;;;;5032784;28;20214;-77
2022/02/18 06:12:01;;;;;;;15.82;4.40;;;9.20;59.00;;;;;;5032535;28;20241;-67
2022/02/18 06:14:28;;;;;;;8.30;4.00;;;9.20;59.30;;;;;;5032090;28;20300;-67
2022/02/18 06:16:54;;;;;;;10.30;4.20;;;9.30;59.30;;;;;;5033447;28;20237;-67
2022/02/18 06:19:21;;;;;;;7.57;4.20;;;9.30;59.40;;;;;;5027463;28;20198;-68
2022/02/18 06:21:48;;;;;;;12.32;5.05;;;9.30;59.40;;;;;;5031376;28;20654;-69
2022/02/18 06:24:16;;;;;;;11.50;6.88;;;9.30;59.40;;;;;;5032413;28;20187;-68
2022/02/18 06:26:43;;;;;;;11.13;7.15;;;9.30;59.60;;;;;;5030344;28;20333;-69
2022/02/18 06:29:12;;;;;;;14.10;6.38;;;9.30;60.00;;;;;;5031781;28;20191;-68
2022/02/18 06:31:39;;;;;;;15.18;7.00;;;9.20;60.20;;;;;;5032930;28;20322;-69
2022/02/18 06:34:06;;;;;;;18.33;5.13;;;9.20;60.20;;;;;;5032140;28;20650;-68
2022/02/18 06:36:33;;;;;;;14.00;5.95;;;9.30;60.40;;;;;;5032229;28;20230;-68
2022/02/18 06:39:00;;;;;;;15.07;6.28;;;9.30;60.40;;;;;;5032702;28;20630;-68
2022/02/18 06:41:29;;;;;;;11.50;5.20;;;9.30;60.60;;;;;;5033069;28;20604;-67
2022/02/18 06:43:56;;;;;;;17.15;6.35;;;9.40;60.60;;;;;;5029936;28;20210;-67
2022/02/18 06:46:22;;;;;;;14.07;6.50;;;9.40;60.50;;;;;;5032884;28;20227;-68
2022/02/18 06:48:49;;;;;;;11.80;5.43;;;9.30;60.20;;;;;;5031225;28;20191;-68
2022/02/18 06:51:16;;;;;;;10.82;5.28;;;9.40;60.40;;;;;;5030995;28;20262;-68
2022/02/18 06:53:43;;;;;;;13.43;6.05;;;9.40;60.30;;;;;;5025892;28;20222;-69
2022/02/18 06:56:10;;;;;;;9.30;4.45;;;9.40;60.20;;;;;;5030517;28;20191;-68
2022/02/18 06:58:38;;;;;;;12.65;5.50;;;9.40;60.30;;;;;;5032355;28;20249;-68
2022/02/18 07:01:05;;;;;;;9.23;5.72;;;9.40;60.80;;;;;;5032519;28;20199;-67
2022/02/18 07:03:32;;;;;;;9.98;4.10;;;9.40;60.30;;;;;;5032058;28;20203;-68
2022/02/18 07:06:02;;;;;;;10.75;4.25;;;9.40;60.50;;;;;;5030539;28;20199;-67
2022/02/18 07:08:29;;;;;;;7.43;3.50;;;9.50;61.20;;;;;;5031154;28;20194;-67
2022/02/18 07:10:56;;;;;;;7.85;3.47;;;9.60;60.80;;;;;;5024549;28;20665;-67
2022/02/18 07:13:23;;;;;;;8.85;3.97;;;9.70;59.70;;;;;;5031025;28;20227;-71
2022/02/18 07:15:52;;;;;;;6.93;2.92;;;9.60;59.50;;;;;;5030822;28;20188;-68
2022/02/18 07:18:19;;;;;;;7.13;2.30;;;9.70;59.50;;;;;;5028754;28;20202;-68
2022/02/18 07:20:47;;;;;;;12.80;2.78;;;9.80;59.30;;;;;;5032360;28;20201;-67
2022/02/18 07:23:14;;;;;;;7.35;2.15;;;9.80;59.20;;;;;;5031091;28;20210;-70
2022/02/18 07:25:43;;;;;;;4.97;2.95;;;9.80;59.20;;;;;;5024154;28;20241;-68
2022/02/18 07:28:10;;;;;;;4.15;1.92;;;9.80;58.70;;;;;;5031001;28;20630;-68
2022/02/18 07:30:37;;;;;;;6.20;2.30;;;9.90;58.70;;;;;;5030966;28;20230;-69
2022/02/18 07:33:06;;;;;;;6.72;2.00;;;9.80;57.50;;;;;;5031834;28;20649;-67
2022/02/18 07:35:34;;;;;;;5.68;1.85;;;9.80;57.20;;;;;;5025411;28;20191;-68
2022/02/18 07:38:01;;;;;;;5.47;2.33;;;9.80;57.10;;;;;;5027744;28;20195;-67
2022/02/18 07:40:28;;;;;;;6.88;2.10;;;9.70;56.20;;;;;;5028791;28;20214;-68
2022/02/18 07:42:55;;;;;;;6.32;2.10;;;9.60;56.60;;;;;;5025481;28;20230;-73
2022/02/18 07:45:23;;;;;;;3.65;1.52;;;9.50;56.50;;;;;;5030173;28;20226;-68
2022/02/18 07:47:53;;;;;;;5.20;2.28;;;9.40;56.90;;;;;;5025848;28;20194;-67
2022/02/18 07:50:22;;;;;;;10.02;1.60;;;9.40;57.00;;;;;;5031797;28;20223;-67
2022/02/18 07:52:49;;;;;;;3.42;1.50;;;9.30;56.70;;;;;;5031742;28;20187;-69
2022/02/18 07:55:16;;;;;;;4.25;2.40;;;9.30;56.90;;;;;;5031298;28;20195;-67
2022/02/18 07:57:43;;;;;;;4.57;2.05;;;9.30;56.50;;;;;;5031811;28;20300;-67
2022/02/18 08:00:11;;;;;;;2.72;1.52;;;9.20;56.20;;;;;;5031655;28;20187;-67
2022/02/18 08:02:38;;;;;;;7.05;2.05;;;9.20;56.50;;;;;;5030879;28;20650;-68
2022/02/18 08:05:06;;;;;;;4.82;1.73;;;9.10;56.50;;;;;;5031729;28;20229;-68
2022/02/18 08:07:34;;;;;;;4.03;1.63;;;9.10;56.80;;;;;;5031636;28;20199;-67
2022/02/18 08:10:01;;;;;;;9.18;1.83;;;9.10;56.60;;;;;;5031352;28;20250;-67
2022/02/18 08:12:28;;;;;;;5.28;2.55;;;9.30;56.70;;;;;;5031016;28;20241;-68
2022/02/18 08:14:55;;;;;;;4.68;1.25;;;9.30;56.70;;;;;;5031624;28;20269;-67
2022/02/18 08:17:22;;;;;;;6.13;2.38;;;9.20;56.70;;;;;;5031278;28;20557;-68
2022/02/18 08:19:49;;;;;;;6.25;1.73;;;9.30;56.90;;;;;;5031284;28;20191;-67
2022/02/18 08:22:17;;;;;;;4.55;1.70;;;9.30;56.90;;;;;;5030730;28;20646;-68
2022/02/18 08:24:45;;;;;;;6.68;1.85;;;9.40;56.60;;;;;;5031401;28;20626;-68
2022/02/18 08:27:12;;;;;;;5.05;1.60;;;9.50;56.30;;;;;;5031438;28;20221;-68
2022/02/18 08:29:39;;;;;;;5.20;1.77;;;9.70;56.10;;;;;;5030971;28;20218;-68
2022/02/18 08:32:07;;;;;;;10.63;2.45;;;9.70;56.00;;;;;;5030953;28;20352;-68
2022/02/18 08:34:33;;;;;;;3.40;1.55;;;9.80;55.60;;;;;;5031197;28;20548;-67
2022/02/18 08:37:02;;;;;;;5.60;2.00;;;9.80;55.30;;;;;;5031316;28;20650;-68
2022/02/18 08:39:29;;;;;;;4.28;1.45;;;9.80;54.80;;;;;;5031269;28;20191;-67
2022/02/18 08:41:57;;;;;;;6.43;1.55;;;9.90;54.50;;;;;;5030673;28;20245;-67
2022/02/18 08:44:24;;;;;;;5.20;2.28;;;10.00;53.50;;;;;;5030973;28;20191;-68
2022/02/18 08:46:51;;;;;;;5.95;2.53;;;10.10;53.60;;;;;;5031060;28;20235;-67
2022/02/18 08:49:18;;;;;;;4.80;2.10;;;10.30;53.30;;;;;;5030986;28;20249;-68
2022/02/18 08:51:45;;;;;;;4.88;1.85;;;10.40;52.40;;;;;;5030784;28;20222;-70
2022/02/18 08:54:12;;;;;;;8.68;2.03;;;10.50;52.10;;;;;;5030638;28;20245;-68
2022/02/18 08:56:39;;;;;;;4.75;2.00;;;10.60;51.80;;;;;;5031122;28;20202;-69
2022/02/18 08:59:08;;;;;;;4.93;1.83;;;10.60;52.00;;;;;;5030871;28;20773;-69
2022/02/18 09:01:35;;;;;;;5.28;1.75;;;10.70;51.40;;;;;;5030732;28;20270;-68
2022/02/18 09:04:02;;;;;;;5.30;1.95;;;10.70;50.40;;;;;;5031117;28;20240;-67
2022/02/18 09:06:31;;;;;;;5.03;2.38;;;10.90;51.10;;;;;;5031060;28;20633;-68
2022/02/18 09:08:58;;;;;;;13.30;2.97;;;11.40;52.00;;;;;;5030534;28;20542;-68
2022/02/18 09:11:25;;;;;;;11.65;2.20;;;11.80;48.80;;;;;;5026621;28;20250;-68
2022/02/18 09:13:52;;;;;;;5.70;2.38;;;12.00;47.50;;;;;;5030417;28;20646;-68
2022/02/18 09:16:22;;;;;;;4.10;1.60;;;12.30;48.10;;;;;;5030826;28;20344;-68
2022/02/18 09:18:49;;;;;;;9.88;1.90;;;12.40;46.20;;;;;;5030632;28;20269;-69
2022/02/18 09:21:16;;;;;;;7.78;2.40;;;12.40;46.50;;;;;;5026730;28;20191;-68
2022/02/18 09:23:43;;;;;;;5.35;1.67;;;12.40;47.00;;;;;;5030635;28;20199;-68
2022/02/18 09:26:10;;;;;;;8.10;1.88;;;12.20;46.20;;;;;;5030542;28;20191;-68
2022/02/18 09:28:37;;;;;;;5.05;2.40;;;12.10;46.50;;;;;;5030248;28;20192;-69
2022/02/18 09:31:04;;;;;;;4.65;2.00;;;12.10;46.70;;;;;;5026469;28;20718;-68
2022/02/18 09:33:33;;;;;;;3.60;1.52;;;12.20;46.90;;;;;;5030699;28;20199;-68
2022/02/18 09:36:00;;;;;;;4.85;1.65;;;12.30;46.70;;;;;;5030800;28;20202;-67
2022/02/18 09:38:28;;;;;;;4.38;1.85;;;12.40;46.70;;;;;;5030230;28;20208;-69
2022/02/18 09:40:55;;;;;;;6.32;2.25;;;12.50;47.10;;;;;;5033012;28;20201;-69
2022/02/18 09:43:23;;;;;;;4.93;2.03;;;12.50;45.90;;;;;;5034132;28;20755;-68
2022/02/18 09:45:50;;;;;;;6.05;1.88;;;12.60;46.40;;;;;;5033884;28;20285;-68
2022/02/18 09:48:18;;;;;;;6.55;1.77;;;12.70;45.70;;;;;;5033772;28;20192;-68
2022/02/18 09:50:47;;;;;;;5.72;2.20;;;12.70;45.90;;;;;;5034066;28;20255;-68
2022/02/18 09:53:14;;;;;;;3.63;1.30;;;12.60;45.50;;;;;;5034088;28;20191;-68
2022/02/18 09:55:41;;;;;;;4.47;1.55;;;12.60;45.50;;;;;;5033757;28;20219;-69
2022/02/18 09:58:08;;;;;;;7.50;1.70;;;12.50;46.10;;;;;;5033679;28;20234;-69
2022/02/18 10:00:36;;;;;;;4.72;1.40;;;12.50;45.70;;;;;;5033979;28;20725;-68
2022/02/18 10:03:03;;;;;;;5.13;2.08;;;12.40;45.70;;;;;;5033999;28;20195;-68
2022/02/18 10:05:30;;;;;;;3.25;1.83;;;12.40;45.60;;;;;;5033671;28;20195;-68
2022/02/18 10:08:07;;;;;;;4.65;1.88;;;12.40;46.10;;;;;;5033771;28;20561;-68
2022/02/18 10:10:35;;;;;;;5.07;1.45;;;12.40;45.80;;;;;;5033845;28;20685;-67
2022/02/18 10:13:03;;;;;;;5.70;2.10;;;12.40;45.90;;;;;;5033266;28;20764;-69
2022/02/18 10:15:30;;;;;;;3.95;1.88;;;12.50;46.90;;;;;;5033630;28;20551;-68
2022/02/18 10:18:00;;;;;;;8.77;2.15;;;12.60;47.10;;;;;;5033707;28;20231;-68
2022/02/18 10:20:29;;;;;;;7.78;2.70;;;12.70;46.60;;;;;;5033629;28;20722;-68
2022/02/18 10:22:59;;;;;;;10.55;2.30;;;12.80;46.80;;;;;;5029354;28;20203;-68
2022/02/18 10:25:29;;;;;;;7.80;2.80;;;12.90;46.10;;;;;;5033381;28;20625;-69
2022/02/18 10:27:57;;;;;;;4.93;2.45;;;12.90;46.90;;;;;;5033536;28;20292;-68
2022/02/18 10:30:25;;;;;;;6.47;1.90;;;13.00;46.60;;;;;;5033204;28;20191;-68
2022/02/18 10:32:53;;;;;;;6.38;1.52;;;13.00;46.30;;;;;;5033390;28;20548;-67
2022/02/18 10:35:29;;;;;;;3.03;1.87;;;13.20;46.50;;;;;;5032989;28;20191;-68
2022/02/18 10:37:56;;;;;;;4.00;1.90;;;13.30;46.60;;;;;;5033463;28;20461;-68
2022/02/18 10:40:23;;;;;;;4.20;1.80;;;13.40;45.90;;;;;;5033211;28;20503;-68
2022/02/18 10:42:53;;;;;;;3.60;1.40;;;13.30;44.90;;;;;;5033229;28;20496;-69
2022/02/18 10:45:23;;;;;;;3.53;1.47;;;13.30;45.40;;;;;;5032273;28;20611;-69
2022/02/18 10:47:51;;;;;;;4.67;1.83;;;13.20;45.00;;;;;;5033424;28;20464;-68
2022/02/18 10:50:20;;;;;;;8.02;2.10;;;13.20;45.40;;;;;;5033004;28;20473;-68
2022/02/18 10:53:09;;;;;;;4.88;1.90;;;13.20;45.80;;;;;;5032028;28;20249;-71
2022/02/18 10:55:48;;;;;;;3.83;1.58;;;13.10;44.80;;;;;;5032898;28;20195;-69
2022/02/18 10:58:21;;;;;;;5.50;1.92;;;13.00;44.50;;;;;;5029856;28;20725;-67
2022/02/18 11:01:05;;;;;;;8.45;2.03;;;13.00;44.50;;;;;;5032799;28;20550;-69
2022/02/18 11:03:32;;;;;;;13.15;2.67;;;12.90;44.90;;;;;;5030631;28;20199;-68
2022/02/18 11:06:18;;;;;;;5.43;2.90;;;12.80;45.10;;;;;;5032227;28;20199;-69
2022/02/18 11:08:49;;;;;;;10.57;4.45;;;12.70;45.50;;;;;;5031049;28;20195;-68
2022/02/18 11:11:17;;;;;;;8.00;3.50;;;12.70;46.20;;;;;;5032055;28;20678;-68
2022/02/18 11:13:46;;;;;;;5.88;2.55;;;12.70;46.70;;;;;;5032313;28;20472;-68
2022/02/18 11:16:16;;;;;;;2.67;1.70;;;12.70;46.40;;;;;;5031627;28;20191;-68
2022/02/18 11:18:44;;;;;;;7.53;2.33;;;12.80;46.10;;;;;;5032218;28;20639;-69
2022/02/18 11:21:12;;;;;;;11.13;2.10;;;12.80;46.40;;;;;;5032127;28;20594;-69
2022/02/18 11:23:42;;;;;;;10.05;2.05;;;12.80;45.70;;;;;;5032276;28;20678;-68
2022/02/18 11:26:11;;;;;;;8.38;1.77;;;12.80;45.70;;;;;;5028777;28;20223;-71
2022/02/18 11:28:38;;;;;;;3.55;1.80;;;12.80;45.70;;;;;;5027756;28;20218;-69
2022/02/18 11:31:13;;;;;;;13.48;6.95;;;12.70;45.70;;;;;;5032255;28;20226;-68
2022/02/18 11:34:04;;;;;;;4.18;2.10;;;12.70;45.80;;;;;;5031146;28;20226;-69
2022/02/18 11:36:49;;;;;;;8.73;2.83;;;12.70;45.70;;;;;;5028831;28;20646;-68
2022/02/18 11:39:42;;;;;;;9.70;2.90;;;12.80;46.30;;;;;;5029944;28;20225;-68
2022/02/18 11:42:18;;;;;;;10.60;2.60;;;12.80;46.10;;;;;;5029999;28;20194;-69
2022/02/18 11:44:45;;;;;;;6.00;3.10;;;12.90;46.60;;;;;;5031527;28;20472;-68
2022/02/18 11:47:15;;;;;;;15.10;2.60;;;13.00;46.80;;;;;;5031732;28;20238;-68
2022/02/18 11:49:44;;;;;;;6.60;2.67;;;13.00;46.90;;;;;;5031429;28;20202;-68
2022/02/18 11:52:12;;;;;;;6.53;1.90;;;13.10;46.70;;;;;;5031241;28;20697;-68
2022/02/18 11:54:40;;;;;;;6.40;2.57;;;13.50;47.90;;;;;;5030643;28;20446;-68
2022/02/18 11:57:08;;;;;;;7.73;2.50;;;14.30;46.60;;;;;;5025569;28;20488;-68
2022/02/18 11:59:57;;;;;;;7.27;2.30;;;14.60;44.10;;;;;;5031274;28;20801;-68
2022/02/18 12:02:41;;;;;;;5.30;2.10;;;14.60;43.20;;;;;;5030796;28;20775;-68
2022/02/18 12:05:11;;;;;;;7.30;2.20;;;14.40;43.70;;;;;;5029780;28;20485;-68
2022/02/18 12:07:40;;;;;;;4.90;2.17;;;14.40;42.00;;;;;;5031585;28;20458;-69
2022/02/18 12:10:26;;;;;;;3.70;2.10;;;14.30;41.80;;;;;;5027653;28;20441;-68
2022/02/18 12:13:01;;;;;;;4.13;1.90;;;14.20;41.50;;;;;;5030821;28;21059;-68
2022/02/18 12:15:30;;;;;;;6.30;2.50;;;14.10;41.70;;;;;;5031559;28;20868;-69
2022/02/18 12:18:03;;;;;;;4.77;2.50;;;14.20;42.30;;;;;;5031533;28;20500;-68
2022/02/18 12:20:32;;;;;;;7.90;2.80;;;14.30;42.00;;;;;;5026122;28;20522;-68
2022/02/18 12:23:20;;;;;;;4.97;2.53;;;14.40;42.10;;;;;;5030785;28;20489;-68
2022/02/18 12:25:47;;;;;;;4.03;2.17;;;14.40;42.40;;;;;;5030801;28;20492;-68
2022/02/18 12:28:21;;;;;;;6.00;2.80;;;14.30;42.20;;;;;;5031168;28;20442;-68
2022/02/18 12:30:56;;;;;;;6.47;2.67;;;14.30;42.30;;;;;;5030875;28;20940;-68
2022/02/18 12:33:26;;;;;;;3.70;2.07;;;14.20;42.60;;;;;;5030250;28;20441;-68
2022/02/18 12:35:53;;;;;;;5.57;2.73;;;14.10;41.80;;;;;;5030877;28;20875;-69
2022/02/18 12:38:32;;;;;;;9.40;3.00;;;14.00;42.60;;;;;;5030704;28;20434;-68
2022/02/18 12:40:59;;;;;;;6.80;3.60;;;13.90;43.00;;;;;;5030851;28;20437;-68
2022/02/18 12:43:26;;;;;;;8.67;3.80;;;13.80;42.90;;;;;;5028464;28;20430;-71
2022/02/18 12:45:56;;;;;;;8.20;3.40;;;13.70;43.20;;;;;;5031028;28;20438;-68
2022/02/18 12:48:40;;;;;;;5.43;2.43;;;13.70;43.20;;;;;;5028906;28;20457;-68
2022/02/18 12:51:12;;;;;;;4.67;1.83;;;13.70;43.70;;;;;;5030032;28;20442;-68
2022/02/18 12:53:40;;;;;;;5.50;1.80;;;13.70;44.00;;;;;;5029681;28;20492;-68